createdAt,value
2022-08-10T00:01:52.888Z,15.45
2022-08-10T00:04:23.069Z,15.45
2022-08-10T00:06:55.234Z,11.90
2022-08-10T00:09:24.245Z,13.40
2022-08-10T00:11:52.247Z,15.75
2022-08-10T00:14:19.998Z,15.48
2022-08-10T00:16:47.607Z,14.65
2022-08-10T00:19:16.692Z,14.63
2022-08-10T00:21:47.221Z,22.95
2022-08-10T00:24:15.440Z,15.73
2022-08-10T00:27:57.836Z,11.98
2022-08-10T00:29:31.336Z,15.27
2022-08-10T00:31:59.752Z,14.68
2022-08-10T00:34:31.902Z,14.55
2022-08-10T00:37:00.478Z,15.83
2022-08-10T00:39:29.431Z,14.38
2022-08-10T00:42:02.269Z,13.10
2022-08-10T00:44:40.144Z,15.50
2022-08-10T00:47:15.376Z,13.50
2022-08-10T00:49:56.592Z,14.30
2022-08-10T00:52:25.459Z,13.68
2022-08-10T00:54:53.474Z,15.75
2022-08-10T00:57:21.400Z,16.65
2022-08-10T00:59:59.613Z,15.55
2022-08-10T01:02:29.783Z,27.13
2022-08-10T01:05:02.882Z,15.57
2022-08-10T01:07:37.224Z,13.05
2022-08-10T01:10:33.521Z,14.32
2022-08-10T01:13:27.460Z,13.30
2022-08-10T01:16:21.754Z,15.95
2022-08-10T01:18:57.675Z,15.68
2022-08-10T01:22:10.109Z,13.63
2022-08-10T01:25:04.081Z,14.60
2022-08-10T01:30:10.872Z,19.17
2022-08-10T01:32:41.791Z,17.77
2022-08-10T01:35:33.921Z,15.30
2022-08-10T01:38:10.076Z,14.95
2022-08-10T01:40:42.737Z,16.55
2022-08-10T01:43:11.200Z,17.20
2022-08-10T01:45:44.821Z,14.10
2022-08-10T01:48:32.294Z,13.77
2022-08-10T01:51:21.351Z,13.63
2022-08-10T01:54:12.744Z,14.88
2022-08-10T01:56:43.421Z,17.02
2022-08-10T01:59:24.159Z,11.07
2022-08-10T02:01:56.306Z,20.50
2022-08-10T02:04:25.786Z,13.32
2022-08-10T02:06:54.544Z,13.82
2022-08-10T02:09:31.170Z,12.20
2022-08-10T02:12:08.635Z,15.65
2022-08-10T02:14:41.375Z,12.50
2022-08-10T02:17:59.780Z,14.38
2022-08-10T02:20:04.463Z,13.70
2022-08-10T02:22:37.890Z,12.13
2022-08-10T02:25:39.875Z,14.18
2022-08-10T02:27:58.376Z,14.32
2022-08-10T02:30:26.595Z,14.80
2022-08-10T02:32:55.372Z,12.15
2022-08-10T02:35:23.335Z,15.70
2022-08-10T02:37:55.888Z,13.30
2022-08-10T02:45:01.928Z,17.88
2022-08-10T02:45:21.463Z,15.38
2022-08-10T02:46:12.556Z,14.20
2022-08-10T02:48:44.248Z,15.95
2022-08-10T02:51:17.015Z,11.70
2022-08-10T02:54:03.064Z,12.55
2022-08-10T02:56:36.974Z,14.88
2022-08-10T02:59:24.480Z,13.38
2022-08-10T03:01:55.193Z,12.68
2022-08-10T03:04:55.156Z,11.85
2022-08-10T03:07:17.170Z,11.75
2022-08-10T03:09:46.551Z,12.20
2022-08-10T03:12:35.170Z,13.85
2022-08-10T03:15:02.189Z,14.68
2022-08-10T03:17:30.297Z,13.13
2022-08-10T03:20:34.849Z,13.25
2022-08-10T03:22:45.905Z,18.80
2022-08-10T03:25:13.944Z,19.58
2022-08-10T03:27:41.714Z,14.30
2022-08-10T03:30:30.050Z,13.23
2022-08-10T03:32:58.026Z,15.52
2022-08-10T03:35:26.144Z,15.10
2022-08-10T03:37:58.164Z,13.02
2022-08-10T03:40:45.798Z,17.27
2022-08-10T03:43:17.600Z,13.70
2022-08-10T03:45:55.859Z,13.93
2022-08-10T03:48:32.306Z,22.35
2022-08-10T03:51:13.503Z,17.25
2022-08-10T03:54:04.638Z,15.23
2022-08-10T03:56:32.395Z,14.52
2022-08-10T03:59:01.206Z,14.45
2022-08-10T04:02:45.178Z,18.33
2022-08-10T04:04:23.534Z,15.88
2022-08-10T04:06:54.714Z,23.02
2022-08-10T04:09:42.813Z,14.75
2022-08-10T04:12:15.638Z,17.95
2022-08-10T04:14:51.181Z,19.08
2022-08-10T04:18:00.186Z,20.00
2022-08-10T04:20:17.396Z,16.17
2022-08-10T04:22:47.344Z,18.63
2022-08-10T04:25:15.660Z,16.70
2022-08-10T04:27:43.679Z,17.45
2022-08-10T04:30:11.385Z,18.02
2022-08-10T04:32:41.069Z,22.45
2022-08-10T04:35:11.036Z,26.08
2022-08-10T04:37:46.872Z,23.55
2022-08-10T04:40:25.418Z,22.45
2022-08-10T04:43:10.839Z,19.80
2022-08-10T04:45:48.715Z,19.40
2022-08-10T04:48:40.577Z,11.93
2022-08-10T04:51:17.032Z,13.48
2022-08-10T04:54:04.558Z,15.80
2022-08-10T04:56:38.269Z,12.65
2022-08-10T04:59:07.912Z,13.35
2022-08-10T05:02:13.525Z,12.45
2022-08-10T05:04:38.372Z,8.98
2022-08-10T05:07:09.282Z,12.90
2022-08-10T05:10:01.826Z,12.43
2022-08-10T05:12:37.105Z,11.02
2022-08-10T05:15:18.675Z,15.85
2022-08-10T05:18:09.438Z,12.10
2022-08-10T05:20:39.465Z,10.18
2022-08-10T05:23:07.612Z,11.23
2022-08-10T05:25:38.008Z,10.07
2022-08-10T05:28:06.910Z,7.50
2022-08-10T05:30:34.658Z,11.38
2022-08-10T05:33:06.454Z,8.85
2022-08-10T05:35:55.318Z,8.50
2022-08-10T05:38:26.549Z,7.47
2022-08-10T05:40:54.611Z,8.95
2022-08-10T05:43:22.723Z,7.10
2022-08-10T05:46:18.234Z,7.15
2022-08-10T05:48:58.579Z,8.80
2022-08-10T05:51:30.052Z,5.93
2022-08-10T05:54:02.532Z,6.00
2022-08-10T05:56:54.698Z,9.18
2022-08-10T06:00:33.640Z,4.93
2022-08-10T06:02:33.564Z,5.60
2022-08-10T06:05:07.331Z,8.05
2022-08-10T06:07:41.286Z,7.30
2022-08-10T06:10:13.038Z,9.07
2022-08-10T06:12:55.689Z,5.18
2022-08-10T06:15:51.588Z,5.00
2022-08-10T06:18:14.778Z,5.47
2022-08-10T06:20:43.732Z,4.70
2022-08-10T06:23:12.238Z,8.45
2022-08-10T06:26:11.461Z,6.65
2022-08-10T06:28:30.761Z,4.13
2022-08-10T06:30:58.743Z,5.22
2022-08-10T06:33:27.052Z,3.90
2022-08-10T06:35:55.622Z,7.13
2022-08-10T06:38:24.850Z,7.05
2022-08-10T06:40:54.868Z,3.85
2022-08-10T06:43:23.619Z,7.63
2022-08-10T06:46:06.950Z,4.32
2022-08-10T06:51:09.218Z,4.25
2022-08-10T06:53:53.501Z,5.28
2022-08-10T06:56:37.515Z,7.15
2022-08-10T06:59:22.432Z,3.65
2022-08-10T07:01:58.030Z,3.08
2022-08-10T07:04:33.723Z,3.10
2022-08-10T07:07:04.288Z,4.90
2022-08-10T07:09:35.878Z,3.40
2022-08-10T07:12:07.815Z,5.70
2022-08-10T07:14:55.856Z,4.43
2022-08-10T07:17:25.486Z,4.57
2022-08-10T07:19:56.866Z,2.83
2022-08-10T07:23:05.864Z,6.93
2022-08-10T07:25:22.433Z,5.93
2022-08-10T07:28:00.215Z,6.07
2022-08-10T07:30:32.893Z,3.47
2022-08-10T07:33:01.815Z,5.20
2022-08-10T07:35:36.474Z,4.80
2022-08-10T07:38:37.655Z,6.90
2022-08-10T07:41:06.525Z,4.28
2022-08-10T07:43:37.838Z,3.67
2022-08-10T07:46:06.057Z,6.65
2022-08-10T07:48:42.646Z,3.13
2022-08-10T07:51:10.863Z,5.30
2022-08-10T07:53:43.285Z,3.75
2022-08-10T07:56:31.943Z,3.53
2022-08-10T07:59:06.633Z,5.30
2022-08-10T08:01:36.686Z,2.47
2022-08-10T08:04:11.167Z,3.33
2022-08-10T08:06:41.610Z,3.60
2022-08-10T08:09:11.163Z,3.63
2022-08-10T08:11:41.665Z,4.28
2022-08-10T08:26:41.499Z,4.88
2022-08-10T08:29:13.094Z,4.75
2022-08-10T08:31:54.270Z,3.58
2022-08-10T08:34:31.333Z,3.75
2022-08-10T08:37:00.777Z,7.70
2022-08-10T08:39:29.189Z,3.00
2022-08-10T08:42:18.944Z,4.18
2022-08-10T08:45:12.571Z,2.75
2022-08-10T08:48:05.367Z,2.70
2022-08-10T08:50:57.517Z,3.03
2022-08-10T08:54:04.188Z,5.80
2022-08-10T08:56:41.303Z,3.47
2022-08-10T08:59:34.441Z,2.17
2022-08-10T09:02:39.799Z,3.63
2022-08-10T09:05:32.355Z,3.60
2022-08-10T09:08:41.440Z,4.30
2022-08-10T09:11:20.148Z,2.35
2022-08-10T09:14:12.993Z,3.50
2022-08-10T09:17:03.646Z,2.70
2022-08-10T09:19:44.068Z,4.50
2022-08-10T09:22:32.563Z,4.32
2022-08-10T09:25:08.906Z,3.67
2022-08-10T09:27:50.745Z,2.05
2022-08-10T09:30:33.098Z,2.47
2022-08-10T09:36:25.144Z,3.67
2022-08-10T09:36:40.620Z,4.47
2022-08-10T09:40:56.608Z,3.15
2022-08-10T09:42:16.994Z,4.32
2022-08-10T09:44:58.910Z,2.22
2022-08-10T09:48:00.806Z,6.25
2022-08-10T09:54:07.924Z,3.10
2022-08-10T09:57:24.514Z,4.60
2022-08-10T10:00:15.627Z,5.72
2022-08-10T10:03:06.553Z,2.15
2022-08-10T10:05:53.325Z,4.65
2022-08-10T10:08:42.661Z,4.15
2022-08-10T10:11:33.833Z,4.55
2022-08-10T10:14:26.520Z,4.95
2022-08-10T10:17:13.003Z,3.28
2022-08-10T10:20:17.103Z,5.00
2022-08-10T10:22:59.764Z,3.22
2022-08-10T10:25:50.441Z,1.95
2022-08-10T10:32:05.106Z,3.22
2022-08-10T10:34:46.557Z,3.17
2022-08-10T10:37:14.926Z,3.55
2022-08-10T10:39:44.359Z,3.22
2022-08-10T10:42:47.387Z,4.30
2022-08-10T10:45:30.126Z,3.17
2022-08-10T10:48:29.294Z,1.70
2022-08-10T10:51:22.539Z,2.47
2022-08-10T10:54:03.131Z,4.10
2022-08-10T10:56:42.598Z,2.95
2022-08-10T10:59:54.344Z,2.25
2022-08-10T11:02:40.593Z,4.38
2022-08-10T11:05:19.533Z,2.78
2022-08-10T11:07:53.214Z,4.68
2022-08-10T11:10:46.541Z,2.30
2022-08-10T11:14:24.650Z,2.75
2022-08-10T11:16:21.976Z,2.55
2022-08-10T11:19:11.096Z,1.75
2022-08-10T11:21:47.568Z,3.30
2022-08-10T11:24:47.309Z,2.13
2022-08-10T11:27:27.302Z,7.85
2022-08-10T11:30:08.049Z,1.65
2022-08-10T11:32:43.518Z,1.30
2022-08-10T11:35:43.798Z,2.20
2022-08-10T11:38:47.189Z,3.05
2022-08-10T11:42:07.070Z,1.38
2022-08-10T11:44:34.291Z,2.63
2022-08-10T11:47:05.296Z,2.88
2022-08-10T11:49:38.123Z,1.58
2022-08-10T11:52:39.331Z,1.95
2022-08-10T11:55:32.907Z,26.60
2022-08-10T11:58:30.970Z,1.42
2022-08-10T12:01:03.157Z,3.88
2022-08-10T12:03:36.796Z,1.60
2022-08-10T12:06:13.396Z,2.53
2022-08-10T12:10:06.056Z,2.22
2022-08-10T12:11:34.790Z,3.08
2022-08-10T12:14:28.099Z,2.25
2022-08-10T12:17:02.577Z,1.83
2022-08-10T12:19:59.759Z,2.63
2022-08-10T12:22:34.893Z,5.78
2022-08-10T12:25:05.632Z,1.65
2022-08-10T12:27:43.571Z,1.42
2022-08-10T12:30:15.977Z,2.03
2022-08-10T12:32:46.359Z,1.50
2022-08-10T12:35:22.673Z,1.83
2022-08-10T12:38:04.489Z,3.13
2022-08-10T12:40:56.293Z,2.08
2022-08-10T12:44:06.823Z,7.05
2022-08-10T12:46:39.874Z,1.73
2022-08-10T12:49:34.975Z,1.90
2022-08-10T12:52:12.000Z,3.65
2022-08-10T12:54:42.131Z,1.88
2022-08-10T12:57:13.131Z,3.88
2022-08-10T12:59:50.624Z,3.78
2022-08-10T13:02:25.610Z,4.93
2022-08-10T13:04:55.145Z,2.40
2022-08-10T13:08:24.285Z,3.58
2022-08-10T13:10:20.424Z,2.33
2022-08-10T13:12:52.068Z,2.50
2022-08-10T13:15:49.446Z,3.13
2022-08-10T13:18:19.937Z,1.80
2022-08-10T13:20:56.409Z,1.73
2022-08-10T13:23:30.555Z,3.25
2022-08-10T13:25:59.979Z,4.68
2022-08-10T13:28:45.682Z,1.60
2022-08-10T13:31:18.692Z,3.53
2022-08-10T13:36:38.516Z,6.38
2022-08-10T13:39:06.686Z,3.17
2022-08-10T13:41:41.930Z,3.50
2022-08-10T13:44:12.140Z,2.03
2022-08-10T13:46:42.173Z,3.88
2022-08-10T13:49:10.481Z,3.58
2022-08-10T13:51:57.503Z,1.40
2022-08-10T13:54:29.748Z,1.65
2022-08-10T13:56:58.283Z,2.55
2022-08-10T14:00:36.289Z,3.75
2022-08-10T14:02:22.285Z,3.55
2022-08-10T14:04:50.785Z,4.55
2022-08-10T14:07:18.631Z,5.07
2022-08-10T14:09:47.835Z,2.83
2022-08-10T14:12:15.625Z,4.68
2022-08-10T14:14:44.065Z,4.55
2022-08-10T14:17:12.836Z,4.20
2022-08-10T14:19:51.468Z,3.28
2022-08-10T14:22:32.855Z,2.60
2022-08-10T14:25:10.586Z,4.75
2022-08-10T14:28:01.860Z,4.00
2022-08-10T14:30:30.950Z,3.17
2022-08-10T14:33:04.977Z,4.20
2022-08-10T14:36:20.080Z,3.72
2022-08-10T14:38:28.520Z,2.70
2022-08-10T14:40:58.530Z,4.07
2022-08-10T14:43:29.274Z,7.00
2022-08-10T14:46:07.780Z,3.47
2022-08-10T14:48:40.365Z,4.38
2022-08-10T14:51:10.896Z,3.90
2022-08-10T14:53:40.349Z,6.97
2022-08-10T14:56:13.583Z,3.97
2022-08-10T14:59:05.648Z,4.95
2022-08-10T15:02:01.423Z,6.57
2022-08-10T15:04:31.606Z,4.35
2022-08-10T15:07:12.359Z,7.25
2022-08-10T15:10:00.966Z,4.30
2022-08-10T15:12:39.469Z,5.82
2022-08-10T15:15:10.431Z,11.32
2022-08-10T15:17:43.291Z,3.33
2022-08-10T15:20:20.798Z,4.43
2022-08-10T15:22:51.518Z,5.68
2022-08-10T15:25:24.902Z,7.80
2022-08-10T15:28:06.524Z,7.28
2022-08-10T15:30:49.321Z,5.72
2022-08-10T15:33:57.079Z,6.45
2022-08-10T15:36:47.876Z,9.48
2022-08-10T15:40:25.765Z,10.70
2022-08-10T15:42:28.395Z,5.10
2022-08-10T15:44:55.841Z,3.83
2022-08-10T15:47:27.978Z,5.93
2022-08-10T15:50:18.299Z,6.55
2022-08-10T15:53:01.790Z,6.25
2022-08-10T15:55:41.123Z,8.20
2022-08-10T15:58:37.703Z,7.00
2022-08-10T16:02:15.063Z,5.50
2022-08-10T16:04:09.041Z,4.10
2022-08-10T16:06:45.671Z,7.65
2022-08-10T16:10:26.457Z,4.15
2022-08-10T16:12:29.197Z,2.70
2022-08-10T16:15:02.976Z,3.13
2022-08-10T16:17:32.625Z,4.45
2022-08-10T16:20:31.257Z,4.15
2022-08-10T16:23:07.199Z,4.38
2022-08-10T16:25:51.300Z,3.63
2022-08-10T16:28:23.429Z,6.88
2022-08-10T16:30:55.973Z,7.05
2022-08-10T16:33:54.120Z,5.38
2022-08-10T16:36:18.053Z,2.67
2022-08-10T16:38:48.825Z,4.45
2022-08-10T16:42:02.111Z,5.00
2022-08-10T16:44:06.070Z,4.68
2022-08-10T16:46:34.163Z,6.82
2022-08-10T16:49:01.840Z,3.42
2022-08-10T16:51:30.103Z,2.55
2022-08-10T16:53:59.865Z,4.38
2022-08-10T16:56:49.147Z,3.13
2022-08-10T16:59:24.410Z,4.63
2022-08-10T17:01:54.416Z,2.95
2022-08-10T17:04:23.499Z,4.72
2022-08-10T17:06:56.349Z,5.53
2022-08-10T17:09:36.644Z,5.75
2022-08-10T17:12:11.730Z,5.00
2022-08-10T17:14:41.600Z,2.80
2022-08-10T17:17:12.613Z,4.78
2022-08-10T17:19:44.980Z,5.45
2022-08-10T17:22:18.937Z,4.20
2022-08-10T17:24:56.549Z,5.15
2022-08-10T17:28:04.626Z,9.82
2022-08-10T17:30:33.882Z,3.80
2022-08-10T17:33:12.284Z,6.93
2022-08-10T17:35:42.241Z,5.82
2022-08-10T17:38:30.991Z,5.55
2022-08-10T17:41:13.152Z,3.75
2022-08-10T17:43:58.279Z,3.77
2022-08-10T17:46:35.200Z,8.93
2022-08-10T17:49:07.303Z,7.63
2022-08-10T17:51:37.659Z,5.78
2022-08-10T17:54:09.312Z,3.78
2022-08-10T17:56:37.961Z,5.47
2022-08-10T17:59:16.820Z,7.38
2022-08-10T18:01:58.798Z,7.18
2022-08-10T18:04:41.516Z,4.15
2022-08-10T18:07:11.477Z,3.47
2022-08-10T18:09:52.992Z,9.75
2022-08-10T18:12:32.508Z,5.22
2022-08-10T18:15:12.178Z,6.07
2022-08-10T18:17:45.542Z,5.60
2022-08-10T18:20:14.809Z,8.00
2022-08-10T18:22:47.927Z,6.95
2022-08-10T18:25:19.318Z,7.68
2022-08-10T18:28:08.610Z,9.73
2022-08-10T18:30:45.603Z,12.55
2022-08-10T18:33:14.040Z,10.57
2022-08-10T18:35:42.121Z,11.27
2022-08-10T18:38:11.398Z,7.75
2022-08-10T18:40:42.288Z,11.32
2022-08-10T18:44:02.920Z,8.70
2022-08-10T18:46:00.378Z,10.48
2022-08-10T18:48:37.728Z,13.32
2022-08-10T18:51:06.447Z,17.17
2022-08-10T18:53:48.485Z,19.75
2022-08-10T18:56:19.048Z,11.27
2022-08-10T18:59:21.169Z,11.90
2022-08-10T19:02:10.609Z,8.48
2022-08-10T19:04:45.103Z,12.95
2022-08-10T19:07:35.918Z,9.40
2022-08-10T19:10:28.655Z,6.40
2022-08-10T19:13:04.617Z,7.05
2022-08-10T19:15:48.945Z,6.43
2022-08-10T19:18:38.728Z,7.45
2022-08-10T19:21:14.218Z,7.85
2022-08-10T19:24:00.282Z,10.60
2022-08-10T19:26:55.171Z,18.30
2022-08-10T19:30:08.677Z,16.73
2022-08-10T19:32:25.274Z,11.85
2022-08-10T19:35:05.011Z,15.70
2022-08-10T19:37:38.146Z,14.68
2022-08-10T19:40:43.336Z,15.93
2022-08-10T19:43:37.333Z,9.15
2022-08-10T19:46:18.262Z,12.43
2022-08-10T19:49:10.104Z,10.43
2022-08-10T19:52:11.211Z,9.65
2022-08-10T19:55:01.101Z,9.77
2022-08-10T19:57:47.087Z,12.68
2022-08-10T20:00:23.044Z,15.27
2022-08-10T20:03:04.341Z,13.63
2022-08-10T20:06:18.395Z,13.13
2022-08-10T20:09:22.097Z,12.43
2022-08-10T20:12:12.805Z,9.18
2022-08-10T20:15:06.940Z,9.25
2022-08-10T20:17:51.696Z,12.52
2022-08-10T20:20:45.460Z,9.77
2022-08-10T20:23:19.342Z,10.73
2022-08-10T20:25:56.646Z,13.68
2022-08-10T20:28:55.088Z,7.90
2022-08-10T20:31:24.328Z,11.85
2022-08-10T20:34:05.175Z,11.52
2022-08-10T20:36:51.603Z,10.20
2022-08-10T20:39:21.911Z,10.82
2022-08-10T20:42:03.224Z,13.55
2022-08-10T20:44:53.715Z,9.50
2022-08-10T20:47:29.811Z,12.32
2022-08-10T20:50:36.941Z,8.70
2022-08-10T20:53:09.989Z,9.85
2022-08-10T20:56:18.326Z,7.78
2022-08-10T20:59:07.075Z,9.30
2022-08-10T21:02:07.331Z,6.15
2022-08-10T21:05:16.943Z,9.00
2022-08-10T21:08:01.734Z,7.80
2022-08-10T21:10:48.317Z,10.65
2022-08-10T21:13:53.306Z,10.02
2022-08-10T21:16:39.392Z,11.93
2022-08-10T21:19:53.585Z,10.88
2022-08-10T21:22:29.399Z,9.70
2022-08-10T21:24:59.942Z,9.25
2022-08-10T21:27:55.289Z,9.60
2022-08-10T21:30:53.617Z,10.95
2022-08-10T21:33:35.773Z,12.20
2022-08-10T21:36:17.934Z,9.27
2022-08-10T21:39:10.179Z,12.15
2022-08-10T21:42:25.121Z,9.65
2022-08-10T21:45:59.560Z,8.77
2022-08-10T21:49:04.997Z,8.73
2022-08-10T21:52:04.156Z,8.55
2022-08-10T21:54:51.716Z,12.20
2022-08-10T21:57:44.002Z,11.75
2022-08-10T22:00:45.443Z,11.03
2022-08-10T22:03:39.738Z,10.27
2022-08-10T22:06:28.394Z,11.20
2022-08-10T22:09:19.506Z,8.45
2022-08-10T22:12:10.827Z,8.25
2022-08-10T22:15:22.940Z,9.40
2022-08-10T22:18:09.622Z,11.73
2022-08-10T22:20:58.295Z,11.23
2022-08-10T22:23:51.096Z,10.85
2022-08-10T22:27:46.474Z,7.72
2022-08-10T22:30:23.365Z,9.45
2022-08-10T22:33:21.552Z,9.55
2022-08-10T22:36:21.292Z,9.15
2022-08-10T22:40:11.117Z,8.82
2022-08-10T22:42:58.328Z,7.97
2022-08-10T22:45:55.646Z,9.38
2022-08-10T22:48:41.908Z,10.75
2022-08-10T22:51:20.728Z,11.95
2022-08-10T22:54:30.515Z,13.32
2022-08-10T22:57:21.893Z,7.35
2022-08-10T22:59:50.021Z,13.10
2022-08-10T23:02:38.096Z,8.80
2022-08-10T23:05:12.364Z,8.75
2022-08-10T23:07:49.758Z,8.65
2022-08-10T23:10:19.565Z,9.75
2022-08-10T23:13:02.797Z,7.65
2022-08-10T23:15:55.182Z,12.90
2022-08-10T23:19:00.965Z,9.32
2022-08-10T23:22:00.164Z,12.43
2022-08-10T23:24:47.575Z,11.18
2022-08-10T23:30:11.200Z,8.75
2022-08-10T23:32:50.294Z,12.05
2022-08-10T23:36:29.622Z,10.07
2022-08-10T23:38:11.435Z,11.38
2022-08-10T23:40:45.219Z,9.27
2022-08-10T23:43:17.981Z,12.82
2022-08-10T23:45:54.512Z,12.02
2022-08-10T23:48:34.361Z,8.57
2022-08-10T23:51:16.998Z,12.63
2022-08-10T23:53:47.079Z,10.45
2022-08-10T23:56:19.890Z,17.40
2022-08-10T23:58:54.529Z,14.70
